sensor_id;sensor_type;location;lat;lon;timestamp;P1;durP1;ratioP1;P2;durP2;ratioP2
9418;SDS011;4748;50.802;7.132;2023-02-03T00:00:53;1.87;;;1.30;;
9418;SDS011;4748;50.802;7.132;2023-02-03T00:03:18;7.37;;;1.93;;
9418;SDS011;4748;50.802;7.132;2023-02-03T00:05:44;9.93;;;1.67;;
9418;SDS011;4748;50.802;7.132;2023-02-03T00:08:11;1.53;;;1.00;;
9418;SDS011;4748;50.802;7.132;2023-02-03T00:10:37;2.63;;;1.00;;
9418;SDS011;4748;50.802;7.132;2023-02-03T00:13:03;2.33;;;1.67;;
9418;SDS011;4748;50.802;7.132;2023-02-03T00:15:29;1.73;;;1.00;;
9418;SDS011;4748;50.802;7.132;2023-02-03T00:17:55;2.07;;;1.10;;
9418;SDS011;4748;50.802;7.132;2023-02-03T00:20:20;3.40;;;1.10;;
9418;SDS011;4748;50.802;7.132;2023-02-03T00:22:46;4.40;;;0.73;;
9418;SDS011;4748;50.802;7.132;2023-02-03T00:25:12;1.57;;;1.47;;
9418;SDS011;4748;50.802;7.132;2023-02-03T00:27:37;0.87;;;0.83;;
9418;SDS011;4748;50.802;7.132;2023-02-03T00:30:02;2.77;;;0.97;;
9418;SDS011;4748;50.802;7.132;2023-02-03T00:32:28;0.67;;;0.67;;
9418;SDS011;4748;50.802;7.132;2023-02-03T00:34:54;6.40;;;0.83;;
9418;SDS011;4748;50.802;7.132;2023-02-03T00:37:19;6.33;;;0.90;;
9418;SDS011;4748;50.802;7.132;2023-02-03T00:39:46;3.93;;;1.20;;
9418;SDS011;4748;50.802;7.132;2023-02-03T00:42:12;3.83;;;0.60;;
9418;SDS011;4748;50.802;7.132;2023-02-03T00:44:37;3.73;;;0.87;;
9418;SDS011;4748;50.802;7.132;2023-02-03T00:47:03;4.20;;;0.63;;
9418;SDS011;4748;50.802;7.132;2023-02-03T00:49:28;4.73;;;0.83;;
9418;SDS011;4748;50.802;7.132;2023-02-03T00:51:53;12.87;;;1.13;;
9418;SDS011;4748;50.802;7.132;2023-02-03T00:54:19;1.20;;;1.13;;
9418;SDS011;4748;50.802;7.132;2023-02-03T00:56:44;1.57;;;0.80;;
9418;SDS011;4748;50.802;7.132;2023-02-03T00:59:09;1.03;;;0.93;;
9418;SDS011;4748;50.802;7.132;2023-02-03T01:01:35;5.13;;;0.80;;
9418;SDS011;4748;50.802;7.132;2023-02-03T01:04:00;1.53;;;1.30;;
9418;SDS011;4748;50.802;7.132;2023-02-03T01:06:27;4.00;;;1.07;;
9418;SDS011;4748;50.802;7.132;2023-02-03T01:08:52;0.77;;;0.67;;
9418;SDS011;4748;50.802;7.132;2023-02-03T01:11:19;2.33;;;0.60;;
9418;SDS011;4748;50.802;7.132;2023-02-03T01:13:46;3.97;;;1.00;;
9418;SDS011;4748;50.802;7.132;2023-02-03T01:16:14;1.00;;;0.87;;
9418;SDS011;4748;50.802;7.132;2023-02-03T01:18:40;2.87;;;0.70;;
9418;SDS011;4748;50.802;7.132;2023-02-03T01:21:10;1.60;;;0.47;;
9418;SDS011;4748;50.802;7.132;2023-02-03T01:23:38;0.40;;;0.40;;
9418;SDS011;4748;50.802;7.132;2023-02-03T01:26:07;1.50;;;0.70;;
9418;SDS011;4748;50.802;7.132;2023-02-03T01:28:35;0.80;;;0.47;;
9418;SDS011;4748;50.802;7.132;2023-02-03T01:31:08;2.27;;;0.40;;
9418;SDS011;4748;50.802;7.132;2023-02-03T01:33:35;1.73;;;0.70;;
9418;SDS011;4748;50.802;7.132;2023-02-03T01:36:00;10.90;;;0.60;;
9418;SDS011;4748;50.802;7.132;2023-02-03T01:38:26;1.33;;;0.40;;
9418;SDS011;4748;50.802;7.132;2023-02-03T01:40:51;1.40;;;0.60;;
9418;SDS011;4748;50.802;7.132;2023-02-03T01:43:27;4.43;;;0.83;;
9418;SDS011;4748;50.802;7.132;2023-02-03T01:45:57;1.03;;;0.60;;
9418;SDS011;4748;50.802;7.132;2023-02-03T01:48:24;2.77;;;0.60;;
9418;SDS011;4748;50.802;7.132;2023-02-03T01:50:50;1.40;;;0.70;;
9418;SDS011;4748;50.802;7.132;2023-02-03T01:53:15;2.87;;;0.57;;
9418;SDS011;4748;50.802;7.132;2023-02-03T01:55:41;1.23;;;0.60;;
9418;SDS011;4748;50.802;7.132;2023-02-03T01:58:20;1.50;;;0.60;;
9418;SDS011;4748;50.802;7.132;2023-02-03T02:00:48;1.03;;;0.30;;
9418;SDS011;4748;50.802;7.132;2023-02-03T02:03:14;0.60;;;0.60;;
9418;SDS011;4748;50.802;7.132;2023-02-03T02:05:48;1.33;;;0.47;;
9418;SDS011;4748;50.802;7.132;2023-02-03T02:08:17;5.50;;;0.77;;
9418;SDS011;4748;50.802;7.132;2023-02-03T02:10:46;4.63;;;0.47;;
9418;SDS011;4748;50.802;7.132;2023-02-03T02:13:12;0.50;;;0.50;;
9418;SDS011;4748;50.802;7.132;2023-02-03T02:15:43;0.40;;;0.40;;
9418;SDS011;4748;50.802;7.132;2023-02-03T02:26:37;2.50;;;0.37;;
9418;SDS011;4748;50.802;7.132;2023-02-03T02:32:17;1.87;;;0.40;;
9418;SDS011;4748;50.802;7.132;2023-02-03T02:43:25;4.50;;;0.53;;
9418;SDS011;4748;50.802;7.132;2023-02-03T02:46:00;0.63;;;0.50;;
9418;SDS011;4748;50.802;7.132;2023-02-03T02:48:31;2.03;;;0.60;;
9418;SDS011;4748;50.802;7.132;2023-02-03T02:51:07;0.33;;;0.33;;
9418;SDS011;4748;50.802;7.132;2023-02-03T02:53:37;6.23;;;0.70;;
9418;SDS011;4748;50.802;7.132;2023-02-03T02:56:07;0.80;;;0.20;;
9418;SDS011;4748;50.802;7.132;2023-02-03T02:58:34;5.37;;;0.70;;
9418;SDS011;4748;50.802;7.132;2023-02-03T03:01:03;0.43;;;0.43;;
9418;SDS011;4748;50.802;7.132;2023-02-03T03:03:30;1.87;;;0.60;;
9418;SDS011;4748;50.802;7.132;2023-02-03T03:06:04;0.30;;;0.30;;
9418;SDS011;4748;50.802;7.132;2023-02-03T03:11:17;2.80;;;0.57;;
9418;SDS011;4748;50.802;7.132;2023-02-03T03:13:45;2.73;;;0.60;;
9418;SDS011;4748;50.802;7.132;2023-02-03T03:16:14;1.13;;;0.40;;
9418;SDS011;4748;50.802;7.132;2023-02-03T03:19:30;0.90;;;0.60;;
9418;SDS011;4748;50.802;7.132;2023-02-03T03:21:33;0.93;;;0.40;;
9418;SDS011;4748;50.802;7.132;2023-02-03T03:24:07;0.30;;;0.23;;
9418;SDS011;4748;50.802;7.132;2023-02-03T03:26:50;0.67;;;0.40;;
9418;SDS011;4748;50.802;7.132;2023-02-03T03:29:36;0.23;;;0.20;;
9418;SDS011;4748;50.802;7.132;2023-02-03T03:32:02;0.60;;;0.40;;
9418;SDS011;4748;50.802;7.132;2023-02-03T03:34:28;0.57;;;0.53;;
9418;SDS011;4748;50.802;7.132;2023-02-03T03:36:57;0.60;;;0.60;;
9418;SDS011;4748;50.802;7.132;2023-02-03T03:42:19;1.33;;;0.40;;
9418;SDS011;4748;50.802;7.132;2023-02-03T03:44:56;0.30;;;0.23;;
9418;SDS011;4748;50.802;7.132;2023-02-03T03:47:30;5.93;;;0.80;;
9418;SDS011;4748;50.802;7.132;2023-02-03T03:49:59;5.43;;;0.50;;
9418;SDS011;4748;50.802;7.132;2023-02-03T03:52:29;3.23;;;0.40;;
9418;SDS011;4748;50.802;7.132;2023-02-03T03:54:59;3.73;;;0.53;;
9418;SDS011;4748;50.802;7.132;2023-02-03T03:57:35;2.13;;;0.40;;
9418;SDS011;4748;50.802;7.132;2023-02-03T04:00:05;0.47;;;0.40;;
9418;SDS011;4748;50.802;7.132;2023-02-03T04:02:34;0.33;;;0.30;;
9418;SDS011;4748;50.802;7.132;2023-02-03T04:05:03;3.03;;;0.83;;
9418;SDS011;4748;50.802;7.132;2023-02-03T04:07:42;1.17;;;0.60;;
9418;SDS011;4748;50.802;7.132;2023-02-03T04:12:40;3.70;;;0.90;;
9418;SDS011;4748;50.802;7.132;2023-02-03T04:15:06;6.73;;;0.40;;
9418;SDS011;4748;50.802;7.132;2023-02-03T04:17:31;11.87;;;0.57;;
9418;SDS011;4748;50.802;7.132;2023-02-03T04:20:00;0.87;;;0.60;;
9418;SDS011;4748;50.802;7.132;2023-02-03T04:22:25;1.80;;;0.80;;
9418;SDS011;4748;50.802;7.132;2023-02-03T04:24:50;3.07;;;0.60;;
9418;SDS011;4748;50.802;7.132;2023-02-03T04:27:16;1.80;;;0.67;;
9418;SDS011;4748;50.802;7.132;2023-02-03T04:29:41;0.30;;;0.30;;
9418;SDS011;4748;50.802;7.132;2023-02-03T04:32:06;2.97;;;0.30;;
9418;SDS011;4748;50.802;7.132;2023-02-03T04:34:32;0.73;;;0.60;;
9418;SDS011;4748;50.802;7.132;2023-02-03T04:36:57;0.90;;;0.30;;
9418;SDS011;4748;50.802;7.132;2023-02-03T04:39:22;0.30;;;0.30;;
9418;SDS011;4748;50.802;7.132;2023-02-03T04:41:48;0.83;;;0.40;;
9418;SDS011;4748;50.802;7.132;2023-02-03T04:44:13;2.63;;;0.60;;
9418;SDS011;4748;50.802;7.132;2023-02-03T04:46:38;2.03;;;0.57;;
9418;SDS011;4748;50.802;7.132;2023-02-03T04:49:03;2.27;;;0.43;;
9418;SDS011;4748;50.802;7.132;2023-02-03T04:51:29;0.83;;;0.30;;
9418;SDS011;4748;50.802;7.132;2023-02-03T04:53:54;0.23;;;0.23;;
9418;SDS011;4748;50.802;7.132;2023-02-03T04:56:20;2.83;;;0.57;;
9418;SDS011;4748;50.802;7.132;2023-02-03T04:58:45;1.87;;;0.40;;
9418;SDS011;4748;50.802;7.132;2023-02-03T05:01:10;6.07;;;0.40;;
9418;SDS011;4748;50.802;7.132;2023-02-03T05:03:36;5.47;;;0.60;;
9418;SDS011;4748;50.802;7.132;2023-02-03T05:06:01;3.70;;;0.97;;
9418;SDS011;4748;50.802;7.132;2023-02-03T05:08:27;0.93;;;0.33;;
9418;SDS011;4748;50.802;7.132;2023-02-03T05:10:53;0.73;;;0.73;;
9418;SDS011;4748;50.802;7.132;2023-02-03T05:13:18;0.30;;;0.30;;
9418;SDS011;4748;50.802;7.132;2023-02-03T05:15:43;0.70;;;0.70;;
9418;SDS011;4748;50.802;7.132;2023-02-03T05:18:09;1.23;;;0.57;;
9418;SDS011;4748;50.802;7.132;2023-02-03T05:20:34;2.83;;;1.07;;
9418;SDS011;4748;50.802;7.132;2023-02-03T05:22:59;1.10;;;0.10;;
9418;SDS011;4748;50.802;7.132;2023-02-03T05:25:25;3.00;;;0.60;;
9418;SDS011;4748;50.802;7.132;2023-02-03T05:27:50;1.53;;;0.50;;
9418;SDS011;4748;50.802;7.132;2023-02-03T05:30:16;9.43;;;1.00;;
9418;SDS011;4748;50.802;7.132;2023-02-03T05:32:41;0.33;;;0.33;;
9418;SDS011;4748;50.802;7.132;2023-02-03T05:35:07;2.20;;;0.40;;
9418;SDS011;4748;50.802;7.132;2023-02-03T05:37:32;0.30;;;0.27;;
9418;SDS011;4748;50.802;7.132;2023-02-03T05:39:57;0.20;;;0.20;;
9418;SDS011;4748;50.802;7.132;2023-02-03T05:42:49;0.73;;;0.30;;
9418;SDS011;4748;50.802;7.132;2023-02-03T05:45:15;1.93;;;0.60;;
9418;SDS011;4748;50.802;7.132;2023-02-03T05:47:40;1.00;;;0.50;;
9418;SDS011;4748;50.802;7.132;2023-02-03T05:50:06;4.43;;;0.43;;
9418;SDS011;4748;50.802;7.132;2023-02-03T05:52:32;0.57;;;0.40;;
9418;SDS011;4748;50.802;7.132;2023-02-03T05:54:57;3.07;;;0.40;;
9418;SDS011;4748;50.802;7.132;2023-02-03T05:57:22;7.83;;;0.40;;
9418;SDS011;4748;50.802;7.132;2023-02-03T05:59:48;0.60;;;0.17;;
9418;SDS011;4748;50.802;7.132;2023-02-03T06:02:13;0.47;;;0.37;;
9418;SDS011;4748;50.802;7.132;2023-02-03T06:04:39;1.50;;;0.20;;
9418;SDS011;4748;50.802;7.132;2023-02-03T06:07:05;0.10;;;0.10;;
9418;SDS011;4748;50.802;7.132;2023-02-03T06:09:30;1.90;;;0.33;;
9418;SDS011;4748;50.802;7.132;2023-02-03T06:11:56;0.30;;;0.27;;
9418;SDS011;4748;50.802;7.132;2023-02-03T06:14:22;1.20;;;0.10;;
9418;SDS011;4748;50.802;7.132;2023-02-03T06:16:47;4.23;;;0.33;;
9418;SDS011;4748;50.802;7.132;2023-02-03T06:19:12;1.70;;;0.40;;
9418;SDS011;4748;50.802;7.132;2023-02-03T06:21:38;4.43;;;0.40;;
9418;SDS011;4748;50.802;7.132;2023-02-03T06:24:03;3.30;;;0.50;;
9418;SDS011;4748;50.802;7.132;2023-02-03T06:26:28;8.60;;;0.53;;
9418;SDS011;4748;50.802;7.132;2023-02-03T06:28:54;4.37;;;0.30;;
9418;SDS011;4748;50.802;7.132;2023-02-03T06:31:19;1.70;;;0.30;;
9418;SDS011;4748;50.802;7.132;2023-02-03T06:33:45;0.87;;;0.30;;
9418;SDS011;4748;50.802;7.132;2023-02-03T06:36:10;1.40;;;0.20;;
9418;SDS011;4748;50.802;7.132;2023-02-03T06:38:35;0.20;;;0.20;;
9418;SDS011;4748;50.802;7.132;2023-02-03T06:41:01;0.97;;;0.50;;
9418;SDS011;4748;50.802;7.132;2023-02-03T06:43:26;3.63;;;0.63;;
9418;SDS011;4748;50.802;7.132;2023-02-03T06:45:51;4.43;;;0.23;;
9418;SDS011;4748;50.802;7.132;2023-02-03T06:48:17;0.23;;;0.23;;
9418;SDS011;4748;50.802;7.132;2023-02-03T06:50:43;1.60;;;0.33;;
9418;SDS011;4748;50.802;7.132;2023-02-03T06:53:08;0.63;;;0.20;;
9418;SDS011;4748;50.802;7.132;2023-02-03T06:55:34;2.10;;;0.33;;
9418;SDS011;4748;50.802;7.132;2023-02-03T06:57:59;1.37;;;0.37;;
9418;SDS011;4748;50.802;7.132;2023-02-03T07:00:25;0.87;;;0.20;;
9418;SDS011;4748;50.802;7.132;2023-02-03T07:02:54;1.13;;;0.30;;
9418;SDS011;4748;50.802;7.132;2023-02-03T07:05:21;1.80;;;0.23;;
9418;SDS011;4748;50.802;7.132;2023-02-03T07:07:47;5.17;;;0.43;;
9418;SDS011;4748;50.802;7.132;2023-02-03T07:10:13;0.67;;;0.33;;
9418;SDS011;4748;50.802;7.132;2023-02-03T07:12:38;0.40;;;0.20;;
9418;SDS011;4748;50.802;7.132;2023-02-03T07:15:03;0.43;;;0.37;;
9418;SDS011;4748;50.802;7.132;2023-02-03T07:17:29;1.70;;;0.10;;
9418;SDS011;4748;50.802;7.132;2023-02-03T07:19:55;0.00;;;0.00;;
9418;SDS011;4748;50.802;7.132;2023-02-03T07:22:20;1.30;;;0.20;;
9418;SDS011;4748;50.802;7.132;2023-02-03T07:24:46;0.90;;;0.37;;
9418;SDS011;4748;50.802;7.132;2023-02-03T07:27:11;1.37;;;0.37;;
9418;SDS011;4748;50.802;7.132;2023-02-03T07:29:37;2.70;;;0.60;;
9418;SDS011;4748;50.802;7.132;2023-02-03T07:32:02;0.50;;;0.20;;
9418;SDS011;4748;50.802;7.132;2023-02-03T07:34:27;0.70;;;0.20;;
9418;SDS011;4748;50.802;7.132;2023-02-03T07:36:53;0.30;;;0.20;;
9418;SDS011;4748;50.802;7.132;2023-02-03T07:39:19;0.20;;;0.10;;
9418;SDS011;4748;50.802;7.132;2023-02-03T07:41:44;0.30;;;0.10;;
9418;SDS011;4748;50.802;7.132;2023-02-03T07:44:10;0.00;;;0.00;;
9418;SDS011;4748;50.802;7.132;2023-02-03T07:46:35;2.47;;;0.10;;
9418;SDS011;4748;50.802;7.132;2023-02-03T07:49:04;0.03;;;0.03;;
9418;SDS011;4748;50.802;7.132;2023-02-03T07:51:29;0.20;;;0.10;;
9418;SDS011;4748;50.802;7.132;2023-02-03T07:53:55;0.20;;;0.20;;
9418;SDS011;4748;50.802;7.132;2023-02-03T07:56:21;5.70;;;0.30;;
9418;SDS011;4748;50.802;7.132;2023-02-03T07:58:46;0.93;;;0.23;;
9418;SDS011;4748;50.802;7.132;2023-02-03T08:01:12;0.10;;;0.10;;
9418;SDS011;4748;50.802;7.132;2023-02-03T08:03:39;0.87;;;0.10;;
9418;SDS011;4748;50.802;7.132;2023-02-03T08:06:05;0.10;;;0.10;;
9418;SDS011;4748;50.802;7.132;2023-02-03T08:08:31;12.30;;;0.37;;
9418;SDS011;4748;50.802;7.132;2023-02-03T08:10:57;6.80;;;0.33;;
9418;SDS011;4748;50.802;7.132;2023-02-03T08:13:22;1.33;;;0.17;;
9418;SDS011;4748;50.802;7.132;2023-02-03T08:15:47;0.50;;;0.20;;
9418;SDS011;4748;50.802;7.132;2023-02-03T08:18:13;0.73;;;0.37;;
9418;SDS011;4748;50.802;7.132;2023-02-03T08:20:38;0.43;;;0.03;;
9418;SDS011;4748;50.802;7.132;2023-02-03T08:23:04;0.00;;;0.00;;
9418;SDS011;4748;50.802;7.132;2023-02-03T08:25:29;4.07;;;0.20;;
9418;SDS011;4748;50.802;7.132;2023-02-03T08:27:55;4.30;;;0.50;;
9418;SDS011;4748;50.802;7.132;2023-02-03T08:30:20;2.53;;;0.10;;
9418;SDS011;4748;50.802;7.132;2023-02-03T08:32:46;3.40;;;0.10;;
9418;SDS011;4748;50.802;7.132;2023-02-03T08:35:11;4.03;;;0.10;;
9418;SDS011;4748;50.802;7.132;2023-02-03T08:37:37;0.20;;;0.20;;
9418;SDS011;4748;50.802;7.132;2023-02-03T08:40:03;0.83;;;0.20;;
9418;SDS011;4748;50.802;7.132;2023-02-03T08:42:29;0.10;;;0.10;;
9418;SDS011;4748;50.802;7.132;2023-02-03T08:44:54;0.10;;;0.10;;
9418;SDS011;4748;50.802;7.132;2023-02-03T08:47:20;0.47;;;0.23;;
9418;SDS011;4748;50.802;7.132;2023-02-03T08:49:45;0.20;;;0.20;;
9418;SDS011;4748;50.802;7.132;2023-02-03T08:52:11;3.53;;;0.20;;
9418;SDS011;4748;50.802;7.132;2023-02-03T08:54:37;0.20;;;0.20;;
9418;SDS011;4748;50.802;7.132;2023-02-03T08:57:04;2.60;;;0.30;;
9418;SDS011;4748;50.802;7.132;2023-02-03T08:59:29;5.50;;;0.63;;
9418;SDS011;4748;50.802;7.132;2023-02-03T09:01:55;0.00;;;0.00;;
9418;SDS011;4748;50.802;7.132;2023-02-03T09:04:20;0.20;;;0.20;;
9418;SDS011;4748;50.802;7.132;2023-02-03T09:06:52;0.73;;;0.20;;
9418;SDS011;4748;50.802;7.132;2023-02-03T09:09:21;2.30;;;0.10;;
9418;SDS011;4748;50.802;7.132;2023-02-03T09:11:47;1.77;;;0.37;;
9418;SDS011;4748;50.802;7.132;2023-02-03T09:14:13;0.00;;;0.00;;
9418;SDS011;4748;50.802;7.132;2023-02-03T09:16:38;1.60;;;0.10;;
9418;SDS011;4748;50.802;7.132;2023-02-03T09:19:05;0.10;;;0.10;;
9418;SDS011;4748;50.802;7.132;2023-02-03T09:21:30;0.73;;;0.30;;
9418;SDS011;4748;50.802;7.132;2023-02-03T09:23:59;0.40;;;0.03;;
9418;SDS011;4748;50.802;7.132;2023-02-03T09:26:25;0.60;;;0.30;;
9418;SDS011;4748;50.802;7.132;2023-02-03T09:28:51;1.13;;;0.20;;
9418;SDS011;4748;50.802;7.132;2023-02-03T09:31:16;0.10;;;0.10;;
9418;SDS011;4748;50.802;7.132;2023-02-03T09:33:42;0.63;;;0.10;;
9418;SDS011;4748;50.802;7.132;2023-02-03T09:36:07;1.10;;;1.00;;
9418;SDS011;4748;50.802;7.132;2023-02-03T09:38:34;0.67;;;0.40;;
9418;SDS011;4748;50.802;7.132;2023-02-03T09:41:00;4.13;;;0.50;;
9418;SDS011;4748;50.802;7.132;2023-02-03T09:46:17;0.77;;;0.43;;
9418;SDS011;4748;50.802;7.132;2023-02-03T09:48:47;0.40;;;0.03;;
9418;SDS011;4748;50.802;7.132;2023-02-03T09:51:18;6.40;;;0.47;;
9418;SDS011;4748;50.802;7.132;2023-02-03T09:54:03;5.73;;;0.20;;
9418;SDS011;4748;50.802;7.132;2023-02-03T09:56:38;6.47;;;0.40;;
9418;SDS011;4748;50.802;7.132;2023-02-03T09:59:04;3.90;;;0.37;;
9418;SDS011;4748;50.802;7.132;2023-02-03T10:01:37;0.13;;;0.13;;
9418;SDS011;4748;50.802;7.132;2023-02-03T10:04:20;0.37;;;0.13;;
9418;SDS011;4748;50.802;7.132;2023-02-03T10:06:55;0.00;;;0.00;;
9418;SDS011;4748;50.802;7.132;2023-02-03T10:09:45;4.27;;;0.40;;
9418;SDS011;4748;50.802;7.132;2023-02-03T10:12:30;0.20;;;0.20;;
9418;SDS011;4748;50.802;7.132;2023-02-03T10:15:25;1.07;;;0.10;;
9418;SDS011;4748;50.802;7.132;2023-02-03T10:18:03;3.50;;;0.40;;
9418;SDS011;4748;50.802;7.132;2023-02-03T10:20:42;0.47;;;0.20;;
9418;SDS011;4748;50.802;7.132;2023-02-03T10:25:59;0.40;;;0.40;;
9418;SDS011;4748;50.802;7.132;2023-02-03T10:28:33;1.90;;;0.00;;
9418;SDS011;4748;50.802;7.132;2023-02-03T10:31:05;0.10;;;0.00;;
9418;SDS011;4748;50.802;7.132;2023-02-03T10:33:43;0.30;;;0.30;;
9418;SDS011;4748;50.802;7.132;2023-02-03T10:36:18;0.97;;;0.50;;
9418;SDS011;4748;50.802;7.132;2023-02-03T10:38:58;0.73;;;0.40;;
9418;SDS011;4748;50.802;7.132;2023-02-03T10:41:25;0.10;;;0.10;;
9418;SDS011;4748;50.802;7.132;2023-02-03T10:43:54;1.03;;;0.20;;
9418;SDS011;4748;50.802;7.132;2023-02-03T10:46:25;2.90;;;0.17;;
9418;SDS011;4748;50.802;7.132;2023-02-03T10:48:56;0.10;;;0.10;;
9418;SDS011;4748;50.802;7.132;2023-02-03T10:51:25;0.10;;;0.10;;
9418;SDS011;4748;50.802;7.132;2023-02-03T10:53:54;1.53;;;0.30;;
9418;SDS011;4748;50.802;7.132;2023-02-03T10:56:28;0.57;;;0.20;;
9418;SDS011;4748;50.802;7.132;2023-02-03T10:58:57;0.23;;;0.20;;
9418;SDS011;4748;50.802;7.132;2023-02-03T11:01:26;4.10;;;0.43;;
9418;SDS011;4748;50.802;7.132;2023-02-03T11:06:18;0.20;;;0.20;;
9418;SDS011;4748;50.802;7.132;2023-02-03T11:08:44;0.00;;;0.00;;
9418;SDS011;4748;50.802;7.132;2023-02-03T11:11:19;0.27;;;0.27;;
9418;SDS011;4748;50.802;7.132;2023-02-03T11:13:44;0.23;;;0.23;;
9418;SDS011;4748;50.802;7.132;2023-02-03T11:16:12;0.10;;;0.10;;
9418;SDS011;4748;50.802;7.132;2023-02-03T11:21:39;6.00;;;0.27;;
9418;SDS011;4748;50.802;7.132;2023-02-03T11:24:23;1.93;;;0.17;;
9418;SDS011;4748;50.802;7.132;2023-02-03T11:31:59;0.30;;;0.13;;
9418;SDS011;4748;50.802;7.132;2023-02-03T11:34:28;0.20;;;0.20;;
9418;SDS011;4748;50.802;7.132;2023-02-03T11:36:57;0.57;;;0.30;;
9418;SDS011;4748;50.802;7.132;2023-02-03T11:39:54;0.20;;;0.20;;
9418;SDS011;4748;50.802;7.132;2023-02-03T11:42:43;0.10;;;0.10;;
9418;SDS011;4748;50.802;7.132;2023-02-03T11:45:24;0.00;;;0.00;;
9418;SDS011;4748;50.802;7.132;2023-02-03T11:48:00;2.20;;;0.30;;
9418;SDS011;4748;50.802;7.132;2023-02-03T11:51:24;0.33;;;0.33;;
9418;SDS011;4748;50.802;7.132;2023-02-03T11:53:36;7.03;;;0.87;;
9418;SDS011;4748;50.802;7.132;2023-02-03T12:23:56;0.67;;;0.50;;
9418;SDS011;4748;50.802;7.132;2023-02-03T12:26:39;1.03;;;0.87;;
9418;SDS011;4748;50.802;7.132;2023-02-03T12:29:15;0.40;;;0.30;;
9418;SDS011;4748;50.802;7.132;2023-02-03T12:31:47;0.77;;;0.57;;
9418;SDS011;4748;50.802;7.132;2023-02-03T12:34:21;0.50;;;0.40;;
9418;SDS011;4748;50.802;7.132;2023-02-03T12:37:05;0.20;;;0.20;;
9418;SDS011;4748;50.802;7.132;2023-02-03T12:39:52;3.07;;;1.00;;
9418;SDS011;4748;50.802;7.132;2023-02-03T12:44:58;2.97;;;1.67;;
9418;SDS011;4748;50.802;7.132;2023-02-03T12:49:59;3.90;;;1.53;;
9418;SDS011;4748;50.802;7.132;2023-02-03T12:52:43;3.47;;;0.90;;
9418;SDS011;4748;50.802;7.132;2023-02-03T12:55:36;3.30;;;1.10;;
9418;SDS011;4748;50.802;7.132;2023-02-03T12:58:09;2.53;;;0.60;;
9418;SDS011;4748;50.802;7.132;2023-02-03T13:00:51;0.67;;;0.63;;
9418;SDS011;4748;50.802;7.132;2023-02-03T13:14:45;1.37;;;0.53;;
9418;SDS011;4748;50.802;7.132;2023-02-03T13:17:26;3.13;;;1.00;;
9418;SDS011;4748;50.802;7.132;2023-02-03T13:20:00;0.50;;;0.50;;
9418;SDS011;4748;50.802;7.132;2023-02-03T13:22:28;0.80;;;0.80;;
9418;SDS011;4748;50.802;7.132;2023-02-03T13:43:30;1.93;;;0.47;;
9418;SDS011;4748;50.802;7.132;2023-02-03T13:45:59;2.57;;;1.60;;
9418;SDS011;4748;50.802;7.132;2023-02-03T13:48:27;1.60;;;1.50;;
9418;SDS011;4748;50.802;7.132;2023-02-03T13:51:16;2.00;;;1.00;;
9418;SDS011;4748;50.802;7.132;2023-02-03T13:53:42;4.67;;;0.97;;
9418;SDS011;4748;50.802;7.132;2023-02-03T13:56:20;5.53;;;1.27;;
9418;SDS011;4748;50.802;7.132;2023-02-03T13:58:58;1.57;;;1.10;;
9418;SDS011;4748;50.802;7.132;2023-02-03T14:01:26;1.43;;;1.13;;
9418;SDS011;4748;50.802;7.132;2023-02-03T14:03:51;2.23;;;2.03;;
9418;SDS011;4748;50.802;7.132;2023-02-03T14:09:02;2.87;;;1.80;;
9418;SDS011;4748;50.802;7.132;2023-02-03T14:11:44;1.17;;;1.17;;
9418;SDS011;4748;50.802;7.132;2023-02-03T14:16:39;2.13;;;1.73;;
9418;SDS011;4748;50.802;7.132;2023-02-03T14:19:11;2.53;;;1.57;;
9418;SDS011;4748;50.802;7.132;2023-02-03T14:22:07;1.07;;;1.07;;
9418;SDS011;4748;50.802;7.132;2023-02-03T14:24:41;1.87;;;1.77;;
9418;SDS011;4748;50.802;7.132;2023-02-03T14:27:21;5.17;;;2.73;;
9418;SDS011;4748;50.802;7.132;2023-02-03T14:30:03;3.00;;;2.00;;
9418;SDS011;4748;50.802;7.132;2023-02-03T14:32:51;3.03;;;1.07;;
9418;SDS011;4748;50.802;7.132;2023-02-03T14:35:23;1.13;;;1.13;;
9418;SDS011;4748;50.802;7.132;2023-02-03T14:38:02;2.47;;;2.27;;
9418;SDS011;4748;50.802;7.132;2023-02-03T14:43:38;9.60;;;2.30;;
9418;SDS011;4748;50.802;7.132;2023-02-03T14:57:34;2.10;;;2.00;;
9418;SDS011;4748;50.802;7.132;2023-02-03T15:05:35;3.03;;;2.20;;
9418;SDS011;4748;50.802;7.132;2023-02-03T15:08:31;2.70;;;1.87;;
9418;SDS011;4748;50.802;7.132;2023-02-03T15:10:57;1.87;;;1.77;;
9418;SDS011;4748;50.802;7.132;2023-02-03T15:16:00;4.40;;;3.07;;
9418;SDS011;4748;50.802;7.132;2023-02-03T15:18:29;1.67;;;1.60;;
9418;SDS011;4748;50.802;7.132;2023-02-03T15:20:54;3.93;;;1.43;;
9418;SDS011;4748;50.802;7.132;2023-02-03T15:23:21;1.53;;;1.47;;
9418;SDS011;4748;50.802;7.132;2023-02-03T15:25:52;1.17;;;1.10;;
9418;SDS011;4748;50.802;7.132;2023-02-03T15:28:34;0.87;;;0.87;;
9418;SDS011;4748;50.802;7.132;2023-02-03T15:31:04;0.80;;;0.80;;
9418;SDS011;4748;50.802;7.132;2023-02-03T15:33:33;1.53;;;1.50;;
9418;SDS011;4748;50.802;7.132;2023-02-03T15:36:07;2.50;;;2.00;;
9418;SDS011;4748;50.802;7.132;2023-02-03T15:38:47;9.10;;;1.77;;
9418;SDS011;4748;50.802;7.132;2023-02-03T15:41:23;2.00;;;1.90;;
9418;SDS011;4748;50.802;7.132;2023-02-03T15:43:54;3.73;;;2.27;;
9418;SDS011;4748;50.802;7.132;2023-02-03T15:49:03;4.90;;;2.00;;
9418;SDS011;4748;50.802;7.132;2023-02-03T15:51:37;4.27;;;1.80;;
9418;SDS011;4748;50.802;7.132;2023-02-03T15:54:14;2.07;;;1.80;;
9418;SDS011;4748;50.802;7.132;2023-02-03T15:56:54;2.53;;;1.87;;
9418;SDS011;4748;50.802;7.132;2023-02-03T15:59:38;2.30;;;2.10;;
9418;SDS011;4748;50.802;7.132;2023-02-03T16:02:14;1.10;;;1.00;;
9418;SDS011;4748;50.802;7.132;2023-02-03T16:04:42;6.20;;;2.03;;
9418;SDS011;4748;50.802;7.132;2023-02-03T16:07:22;4.77;;;1.77;;
9418;SDS011;4748;50.802;7.132;2023-02-03T16:09:51;1.20;;;1.20;;
9418;SDS011;4748;50.802;7.132;2023-02-03T16:14:46;3.13;;;0.87;;
9418;SDS011;4748;50.802;7.132;2023-02-03T16:17:22;6.33;;;2.20;;
9418;SDS011;4748;50.802;7.132;2023-02-03T16:22:37;1.97;;;1.83;;
9418;SDS011;4748;50.802;7.132;2023-02-03T16:25:14;5.20;;;2.17;;
9418;SDS011;4748;50.802;7.132;2023-02-03T16:27:44;1.27;;;0.70;;
9418;SDS011;4748;50.802;7.132;2023-02-03T16:30:37;2.53;;;2.33;;
9418;SDS011;4748;50.802;7.132;2023-02-03T16:33:22;3.67;;;1.60;;
9418;SDS011;4748;50.802;7.132;2023-02-03T16:36:10;5.97;;;1.77;;
9418;SDS011;4748;50.802;7.132;2023-02-03T16:38:57;2.43;;;1.73;;
9418;SDS011;4748;50.802;7.132;2023-02-03T16:41:45;2.30;;;0.77;;
9418;SDS011;4748;50.802;7.132;2023-02-03T16:44:29;3.63;;;1.70;;
9418;SDS011;4748;50.802;7.132;2023-02-03T16:47:23;3.00;;;1.87;;
9418;SDS011;4748;50.802;7.132;2023-02-03T16:50:17;3.23;;;1.60;;
9418;SDS011;4748;50.802;7.132;2023-02-03T16:53:03;6.30;;;2.60;;
9418;SDS011;4748;50.802;7.132;2023-02-03T16:55:29;1.30;;;1.20;;
9418;SDS011;4748;50.802;7.132;2023-02-03T16:57:54;5.77;;;1.63;;
9418;SDS011;4748;50.802;7.132;2023-02-03T17:00:20;5.33;;;0.67;;
9418;SDS011;4748;50.802;7.132;2023-02-03T17:02:46;4.17;;;1.40;;
9418;SDS011;4748;50.802;7.132;2023-02-03T17:05:15;2.70;;;1.30;;
9418;SDS011;4748;50.802;7.132;2023-02-03T17:07:41;4.33;;;1.07;;
9418;SDS011;4748;50.802;7.132;2023-02-03T17:10:07;4.27;;;1.47;;
9418;SDS011;4748;50.802;7.132;2023-02-03T17:12:33;6.57;;;1.53;;
9418;SDS011;4748;50.802;7.132;2023-02-03T17:14:58;1.80;;;0.50;;
9418;SDS011;4748;50.802;7.132;2023-02-03T17:17:24;4.17;;;0.93;;
9418;SDS011;4748;50.802;7.132;2023-02-03T17:19:49;0.77;;;0.77;;
9418;SDS011;4748;50.802;7.132;2023-02-03T17:22:15;6.90;;;1.27;;
9418;SDS011;4748;50.802;7.132;2023-02-03T17:24:40;8.90;;;0.80;;
9418;SDS011;4748;50.802;7.132;2023-02-03T17:27:06;0.37;;;0.33;;
9418;SDS011;4748;50.802;7.132;2023-02-03T17:29:31;5.87;;;0.97;;
9418;SDS011;4748;50.802;7.132;2023-02-03T17:31:56;0.73;;;0.60;;
9418;SDS011;4748;50.802;7.132;2023-02-03T17:34:22;1.07;;;0.70;;
9418;SDS011;4748;50.802;7.132;2023-02-03T17:36:47;5.37;;;0.60;;
9418;SDS011;4748;50.802;7.132;2023-02-03T17:39:12;1.23;;;0.33;;
9418;SDS011;4748;50.802;7.132;2023-02-03T17:41:38;1.17;;;0.47;;
9418;SDS011;4748;50.802;7.132;2023-02-03T17:44:03;1.00;;;1.00;;
9418;SDS011;4748;50.802;7.132;2023-02-03T17:46:29;9.13;;;1.67;;
9418;SDS011;4748;50.802;7.132;2023-02-03T17:48:54;7.17;;;1.00;;
9418;SDS011;4748;50.802;7.132;2023-02-03T17:51:23;4.03;;;1.07;;
9418;SDS011;4748;50.802;7.132;2023-02-03T17:53:50;3.50;;;1.03;;